Time;durP1;ratioP1;P1;durP2;ratioP2;P2;SDS_P1;SDS_P2;PMS_P1;PMS_P2;Temp;Humidity;BMP_temperature;BMP_pressure;BME280_temperature;BME280_humidity;BME280_pressure;Samples;Min_cycle;Max_cycle;Signal;HPM_P1;HPM_P2
2023/01/12 00:02:10;;;;;;;10.37;2.07;;;;;8.00;100660.00;;;;9853831;30;20231;-80
2023/01/12 00:07:14;;;;;;;11.67;2.10;;;;;8.10;100647.00;;;;9855757;30;20199;-79
2023/01/12 00:12:16;;;;;;;8.60;2.50;;;;;8.10;100649.00;;;;9901152;30;20227;-80
2023/01/12 00:17:18;;;;;;;12.30;2.17;;;;;8.10;100647.00;;;;9870384;30;20278;-79
2023/01/12 00:22:20;;;;;;;10.57;1.97;;;;;8.10;100629.00;;;;9882725;30;20576;-80
2023/01/12 00:27:22;;;;;;;11.03;2.50;;;;;8.00;100602.00;;;;9885371;30;20698;-79
2023/01/12 00:32:24;;;;;;;10.30;2.60;;;;;8.00;100602.00;;;;9862067;29;20254;-80
2023/01/12 00:37:26;;;;;;;18.97;2.20;;;;;8.10;100611.00;;;;9870960;30;20198;-79
2023/01/12 00:47:48;;;;;;;10.60;2.90;;;;;8.20;100563.00;;;;9841969;29;20215;-79
2023/01/12 00:52:50;;;;;;;9.63;1.90;;;;;8.20;100556.00;;;;9891142;30;20238;-79
2023/01/12 00:57:52;;;;;;;13.37;2.13;;;;;8.30;100548.00;;;;9876554;30;20199;-79
2023/01/12 01:02:54;;;;;;;12.53;2.53;;;;;8.30;100551.00;;;;9877689;30;20208;-79
2023/01/12 01:07:56;;;;;;;20.93;3.33;;;;;8.50;100537.00;;;;9907561;30;20202;-79
2023/01/12 01:12:58;;;;;;;11.83;2.60;;;;;8.60;100544.00;;;;9873131;30;20228;-80
2023/01/12 01:18:00;;;;;;;12.27;2.67;;;;;8.70;100535.00;;;;9877627;30;20214;-80
2023/01/12 01:23:02;;;;;;;9.63;2.77;;;;;8.60;100526.00;;;;9893402;30;20208;-80
2023/01/12 01:28:03;;;;;;;8.17;2.63;;;;;8.60;100538.00;;;;9878823;29;20253;-79
2023/01/12 01:33:05;;;;;;;10.70;2.00;;;;;8.50;100536.00;;;;9886142;29;20220;-80
2023/01/12 01:38:08;;;;;;;22.57;3.00;;;;;8.50;100526.00;;;;9855801;30;20205;-79
2023/01/12 01:43:16;;;;;;;11.43;2.13;;;;;8.50;100518.00;;;;9887033;29;20276;-80
2023/01/12 01:48:18;;;;;;;10.03;2.30;;;;;8.50;100523.00;;;;9876922;30;20263;-79
2023/01/12 01:53:22;;;;;;;12.00;2.50;;;;;8.40;100516.00;;;;9861466;30;20277;-81
2023/01/12 01:58:30;;;;;;;9.10;2.77;;;;;8.50;100511.00;;;;9881631;29;20672;-80
2023/01/12 02:03:33;;;;;;;15.57;2.40;;;;;8.50;100512.00;;;;9859947;30;20199;-77
2023/01/12 02:08:43;;;;;;;13.97;2.50;;;;;8.50;100491.00;;;;9874857;30;20203;-78
2023/01/12 02:19:38;;;;;;;9.47;2.10;;;;;8.50;100483.00;;;;9873187;30;20204;-77
2023/01/12 02:25:05;;;;;;;9.20;1.50;;;;;8.50;100475.00;;;;9856294;30;20266;-78
2023/01/12 02:30:35;;;;;;;11.37;2.00;;;;;8.60;100458.00;;;;9873160;29;20219;-78
2023/01/12 02:36:28;;;;;;;8.73;1.73;;;;;8.50;100450.00;;;;9866327;30;20340;-78
2023/01/12 02:47:19;;;;;;;9.83;1.67;;;;;8.50;100444.00;;;;9880107;30;20301;-78
2023/01/12 02:52:25;;;;;;;7.27;1.80;;;;;8.50;100421.00;;;;9885891;30;20750;-79
2023/01/12 02:57:29;;;;;;;13.57;2.20;;;;;8.50;100408.00;;;;9857917;30;20207;-78
2023/01/12 03:02:32;;;;;;;9.10;2.23;;;;;8.50;100398.00;;;;9857917;30;20196;-78
2023/01/12 03:07:47;;;;;;;10.10;2.07;;;;;8.50;100390.00;;;;9888125;30;20215;-78
2023/01/12 03:12:50;;;;;;;12.27;1.97;;;;;8.50;100368.00;;;;9835179;30;20326;-77
2023/01/12 03:18:04;;;;;;;13.43;2.50;;;;;8.50;100339.00;;;;9871364;29;20210;-78
2023/01/12 03:23:12;;;;;;;8.20;1.87;;;;;8.50;100323.00;;;;9873428;30;20559;-77
2023/01/12 03:28:17;;;;;;;10.30;3.37;;;;;8.50;100308.00;;;;9872386;30;20212;-78
2023/01/12 03:33:19;;;;;;;12.13;2.90;;;;;8.40;100286.00;;;;9868637;29;20649;-78
2023/01/12 03:38:36;;;;;;;7.87;2.43;;;;;8.40;100268.00;;;;9924885;29;20625;-78
2023/01/12 03:43:49;;;;;;;15.17;3.77;;;;;8.40;100275.00;;;;9873753;29;20199;-78
2023/01/12 03:49:00;;;;;;;9.93;2.70;;;;;8.40;100265.00;;;;9849372;30;20207;-78
2023/01/12 03:54:06;;;;;;;8.83;1.63;;;;;8.40;100254.00;;;;9871990;30;20250;-79
2023/01/12 03:59:08;;;;;;;10.93;2.30;;;;;8.40;100248.00;;;;9871925;30;20207;-78
2023/01/12 04:04:10;;;;;;;7.17;2.70;;;;;8.40;100224.00;;;;9871502;29;20199;-79
2023/01/12 04:09:12;;;;;;;9.83;2.43;;;;;8.40;100203.00;;;;9872148;30;20196;-79
2023/01/12 04:14:14;;;;;;;7.80;2.10;;;;;8.40;100211.00;;;;9886709;30;20227;-78
2023/01/12 04:19:16;;;;;;;9.37;2.27;;;;;8.40;100197.00;;;;9872348;30;20217;-78
2023/01/12 04:24:17;;;;;;;15.50;2.20;;;;;8.40;100196.00;;;;9876454;30;20286;-77
2023/01/12 04:29:19;;;;;;;6.27;1.57;;;;;8.40;100186.00;;;;9850533;30;20184;-78
2023/01/12 04:34:22;;;;;;;10.20;1.90;;;;;8.40;100181.00;;;;9879158;30;20234;-77
2023/01/12 04:39:24;;;;;;;8.67;1.43;;;;;8.40;100186.00;;;;9878623;30;20668;-78
2023/01/12 04:44:26;;;;;;;9.37;2.00;;;;;8.40;100183.00;;;;9878023;30;20253;-79
2023/01/12 04:49:28;;;;;;;6.27;1.37;;;;;8.40;100180.00;;;;9876603;30;20200;-78
2023/01/12 04:54:30;;;;;;;13.33;1.63;;;;;8.40;100182.00;;;;9876982;30;20222;-78
2023/01/12 04:59:32;;;;;;;9.83;1.50;;;;;8.40;100187.00;;;;9876633;30;20200;-79
2023/01/12 05:04:34;;;;;;;6.87;1.50;;;;;8.40;100168.00;;;;9862358;30;20203;-78
2023/01/12 05:14:56;;;;;;;6.47;1.87;;;;;8.50;100159.00;;;;9876547;30;20929;-78
2023/01/12 05:19:58;;;;;;;11.77;1.70;;;;;8.50;100184.00;;;;9876740;30;20196;-78
2023/01/12 05:25:02;;;;;;;12.40;1.83;;;;;8.50;100172.00;;;;9877226;30;20188;-78
2023/01/12 05:30:05;;;;;;;7.00;1.80;;;;;8.50;100167.00;;;;9905636;29;20653;-79
2023/01/12 05:35:08;;;;;;;6.83;1.67;;;;;8.50;100155.00;;;;9896990;29;20681;-79
2023/01/12 05:40:10;;;;;;;6.43;1.00;;;;;8.50;100147.00;;;;9878239;29;20227;-79
2023/01/12 05:45:12;;;;;;;9.00;1.60;;;;;8.50;100147.00;;;;9873319;30;20196;-78
2023/01/12 05:50:14;;;;;;;10.30;1.80;;;;;8.50;100153.00;;;;9839912;30;20218;-78
2023/01/12 05:55:25;;;;;;;10.23;1.50;;;;;8.50;100150.00;;;;9869698;29;20211;-77
2023/01/12 06:00:27;;;;;;;9.37;1.73;;;;;8.50;100149.00;;;;9870097;30;20203;-77
2023/01/12 06:05:29;;;;;;;2.93;1.07;;;;;8.50;100147.00;;;;9848309;29;20211;-77
2023/01/12 06:10:33;;;;;;;3.63;0.80;;;;;8.50;100127.00;;;;9872039;29;20289;-77
2023/01/12 06:15:36;;;;;;;6.23;0.87;;;;;8.50;100150.00;;;;9856927;29;20207;-80
2023/01/12 06:20:38;;;;;;;3.10;0.70;;;;;8.60;100137.00;;;;9872305;29;20294;-78
2023/01/12 06:25:40;;;;;;;2.80;0.80;;;;;8.60;100148.00;;;;9866408;29;20196;-78
2023/01/12 06:30:42;;;;;;;3.73;0.80;;;;;8.60;100153.00;;;;9873352;29;20207;-81
2023/01/12 06:35:48;;;;;;;10.47;1.53;;;;;8.60;100146.00;;;;9856925;29;20204;-79
2023/01/12 06:40:51;;;;;;;7.87;1.47;;;;;8.70;100160.00;;;;9853228;30;20476;-78
2023/01/12 06:45:53;;;;;;;3.23;1.10;;;;;8.70;100156.00;;;;9857978;30;20664;-78
2023/01/12 06:51:03;;;;;;;2.20;0.90;;;;;8.70;100163.00;;;;9861103;29;20242;-79
2023/01/12 06:56:06;;;;;;;6.60;1.50;;;;;8.80;100155.00;;;;9857619;30;20901;-79
2023/01/12 07:01:08;;;;;;;9.50;1.63;;;;;8.70;100148.00;;;;9862480;29;20255;-79
2023/01/12 07:06:10;;;;;;;1.87;1.10;;;;;8.80;100166.00;;;;9887498;30;20655;-80
2023/01/12 07:11:13;;;;;;;5.53;1.00;;;;;8.80;100175.00;;;;9887663;29;20235;-80
2023/01/12 07:16:15;;;;;;;3.43;1.23;;;;;8.80;100171.00;;;;9860306;30;20231;-79
2023/01/12 07:21:18;;;;;;;7.30;1.53;;;;;8.80;100166.00;;;;9872680;30;20587;-80
2023/01/12 07:26:20;;;;;;;2.27;0.83;;;;;8.90;100170.00;;;;9862330;30;20744;-80
2023/01/12 07:31:22;;;;;;;2.97;1.00;;;;;8.90;100171.00;;;;9872541;30;20220;-79
2023/01/12 07:36:24;;;;;;;2.30;0.83;;;;;8.90;100193.00;;;;9844464;30;20292;-79
2023/01/12 07:46:47;;;;;;;2.03;1.00;;;;;9.00;100202.00;;;;9849176;30;20205;-79
2023/01/12 07:51:52;;;;;;;8.23;1.40;;;;;9.00;100210.00;;;;9849508;30;20224;-80
2023/01/12 07:56:54;;;;;;;3.80;0.90;;;;;9.00;100203.00;;;;9902325;29;20215;-80
2023/01/12 08:01:56;;;;;;;7.17;1.30;;;;;9.10;100177.00;;;;9851040;30;20224;-79
2023/01/12 08:06:57;;;;;;;7.03;1.40;;;;;9.10;100210.00;;;;9878239;30;20203;-79
2023/01/12 08:11:59;;;;;;;3.13;1.50;;;;;9.10;100223.00;;;;9864419;30;20622;-80
2023/01/12 08:17:04;;;;;;;5.13;1.67;;;;;9.20;100215.00;;;;9879029;30;20307;-81
2023/01/12 08:22:14;;;;;;;5.97;1.37;;;;;9.20;100221.00;;;;9853189;30;20195;-80
2023/01/12 08:27:19;;;;;;;2.67;1.00;;;;;9.20;100215.00;;;;9893449;30;20211;-78
2023/01/12 08:32:21;;;;;;;5.40;1.00;;;;;9.20;100237.00;;;;9906583;29;20238;-79
2023/01/12 08:37:24;;;;;;;5.47;1.10;;;;;9.30;100229.00;;;;9864286;29;20687;-80
2023/01/12 08:42:29;;;;;;;5.30;1.20;;;;;9.30;100236.00;;;;9878394;30;20294;-80
2023/01/12 08:47:33;;;;;;;5.00;0.90;;;;;9.40;100238.00;;;;9851216;30;20235;-79
2023/01/12 08:52:35;;;;;;;2.37;1.13;;;;;9.50;100253.00;;;;9851371;30;20228;-79
2023/01/12 08:57:37;;;;;;;6.17;1.77;;;;;9.50;100246.00;;;;9862703;29;20672;-79
2023/01/12 09:02:39;;;;;;;4.70;1.50;;;;;9.50;100236.00;;;;9856139;29;20306;-80
2023/01/12 09:07:42;;;;;;;4.10;1.13;;;;;9.60;100235.00;;;;9835032;29;20213;-79
2023/01/12 09:12:44;;;;;;;4.30;1.00;;;;;9.60;100254.00;;;;9888817;30;20219;-80
2023/01/12 09:17:51;;;;;;;3.87;1.30;;;;;9.60;100259.00;;;;9857873;30;20204;-79
2023/01/12 09:22:53;;;;;;;4.60;1.47;;;;;9.60;100263.00;;;;9872121;29;20200;-80
2023/01/12 09:27:55;;;;;;;2.40;1.00;;;;;9.70;100272.00;;;;9865284;29;20208;-81
2023/01/12 09:32:57;;;;;;;3.53;1.13;;;;;9.60;100282.00;;;;9853136;30;20288;-80
2023/01/12 09:37:59;;;;;;;2.97;0.90;;;;;9.80;100278.00;;;;9869544;29;20210;-79
2023/01/12 09:48:23;;;;;;;5.27;1.20;;;;;10.00;100294.00;;;;9850098;29;20215;-80
2023/01/12 09:53:31;;;;;;;4.03;1.03;;;;;10.00;100284.00;;;;9877446;29;20620;-79
2023/01/12 09:58:58;;;;;;;4.60;0.97;;;;;10.00;100301.00;;;;9892308;29;20241;-79
2023/01/12 10:04:02;;;;;;;6.40;1.40;;;;;10.00;100297.00;;;;9871278;29;20695;-79
2023/01/12 10:09:10;;;;;;;2.50;0.93;;;;;10.10;100297.00;;;;9865354;29;20239;-80
2023/01/12 10:14:41;;;;;;;2.30;1.00;;;;;10.10;100305.00;;;;9893284;29;20228;-79
2023/01/12 10:20:20;;;;;;;8.13;1.37;;;;;10.10;100302.00;;;;9876163;29;20279;-79
2023/01/12 10:25:41;;;;;;;4.00;1.07;;;;;10.20;100303.00;;;;9884113;29;20200;-79
2023/01/12 10:30:44;;;;;;;5.00;1.47;;;;;10.20;100310.00;;;;9881809;29;20207;-81
2023/01/12 10:35:52;;;;;;;2.93;1.07;;;;;10.20;100303.00;;;;9870642;29;20211;-79
2023/01/12 10:41:21;;;;;;;5.87;1.20;;;;;10.30;100306.00;;;;9879033;29;20295;-78
2023/01/12 10:46:26;;;;;;;3.30;1.03;;;;;10.40;100318.00;;;;9912882;29;20236;-78
2023/01/12 10:51:30;;;;;;;4.83;1.23;;;;;10.30;100318.00;;;;9848155;29;20322;-78
2023/01/12 10:56:38;;;;;;;4.77;1.13;;;;;10.30;100300.00;;;;9863210;29;20210;-78
2023/01/12 11:01:43;;;;;;;5.87;0.93;;;;;10.30;100310.00;;;;9892708;29;20192;-78
2023/01/12 11:07:15;;;;;;;8.67;1.17;;;;;10.30;100314.00;;;;9884876;29;20203;-76
2023/01/12 11:12:19;;;;;;;3.90;0.70;;;;;10.30;100306.00;;;;9865793;29;20219;-78
2023/01/12 11:17:58;;;;;;;5.80;1.10;;;;;10.30;100305.00;;;;9885016;29;20648;-76
2023/01/12 11:23:04;;;;;;;1.73;0.73;;;;;10.20;100298.00;;;;9902362;29;20672;-79
2023/01/12 11:28:38;;;;;;;1.23;0.70;;;;;10.20;100299.00;;;;9864077;29;20546;-79
2023/01/12 11:33:45;;;;;;;2.23;0.80;;;;;10.10;100277.00;;;;9870353;29;20306;-77
2023/01/12 11:38:51;;;;;;;1.77;0.70;;;;;10.10;100276.00;;;;9866470;29;20204;-78
2023/01/12 11:44:15;;;;;;;2.30;0.97;;;;;10.20;100276.00;;;;9867863;29;20195;-78
2023/01/12 11:49:31;;;;;;;1.63;0.80;;;;;10.30;100270.00;;;;9872056;29;20214;-79
2023/01/12 11:54:37;;;;;;;3.53;1.20;;;;;10.40;100261.00;;;;9859696;29;20587;-77
2023/01/12 11:59:50;;;;;;;2.40;0.53;;;;;10.50;100251.00;;;;9857788;29;20203;-79
2023/01/12 12:05:17;;;;;;;2.80;0.70;;;;;10.60;100247.00;;;;9871161;29;20258;-79
2023/01/12 12:10:26;;;;;;;3.50;0.70;;;;;10.50;100249.00;;;;9896026;29;20250;-79
2023/01/12 12:15:41;;;;;;;1.23;0.60;;;;;10.50;100236.00;;;;9885410;30;20250;-79
2023/01/12 12:21:07;;;;;;;2.10;1.43;;;;;10.50;100240.00;;;;9855546;29;20659;-79
2023/01/12 12:26:11;;;;;;;3.03;1.00;;;;;10.60;100235.00;;;;9835927;29;20200;-78
2023/01/12 12:31:33;;;;;;;2.47;0.77;;;;;10.60;100227.00;;;;9873552;29;20216;-79
2023/01/12 12:36:53;;;;;;;2.77;0.70;;;;;10.60;100221.00;;;;9897516;29;20195;-79
2023/01/12 12:47:50;;;;;;;1.87;0.80;;;;;10.60;100205.00;;;;9901195;29;20667;-78
2023/01/12 12:53:20;;;;;;;2.17;1.00;;;;;10.50;100196.00;;;;9903639;29;20215;-78
2023/01/12 12:58:22;;;;;;;2.27;0.83;;;;;10.70;100195.00;;;;9889528;30;20214;-77
2023/01/12 13:03:39;;;;;;;2.70;0.70;;;;;10.80;100205.00;;;;9861832;30;20204;-79
2023/01/12 13:08:41;;;;;;;4.30;0.90;;;;;10.80;100193.00;;;;9847062;30;20204;-78
2023/01/12 13:14:02;;;;;;;1.37;0.67;;;;;10.90;100189.00;;;;9888964;29;20259;-79
2023/01/12 13:19:10;;;;;;;4.47;1.00;;;;;10.90;100184.00;;;;9847912;30;20756;-79
2023/01/12 13:24:12;;;;;;;2.10;0.90;;;;;10.90;100174.00;;;;9905932;30;20200;-76
2023/01/12 13:29:23;;;;;;;5.03;1.60;;;;;10.80;100169.00;;;;9891206;30;20698;-78
2023/01/12 13:34:37;;;;;;;5.13;0.90;;;;;10.80;100164.00;;;;9884015;30;20219;-78
2023/01/12 13:39:54;;;;;;;2.20;0.80;;;;;10.70;100150.00;;;;9859893;30;20290;-79
2023/01/12 13:44:57;;;;;;;2.77;0.93;;;;;10.50;100152.00;;;;9879129;30;20191;-78
2023/01/12 13:50:01;;;;;;;2.67;0.90;;;;;10.50;100159.00;;;;9881303;30;20211;-79
2023/01/12 13:55:17;;;;;;;1.13;0.80;;;;;10.50;100156.00;;;;9860044;29;20242;-78
2023/01/12 14:00:20;;;;;;;5.40;0.67;;;;;10.40;100145.00;;;;9860236;30;20214;-78
2023/01/12 14:05:46;;;;;;;1.00;0.67;;;;;10.40;100145.00;;;;9844751;29;20202;-78
2023/01/12 14:10:58;;;;;;;2.63;0.97;;;;;10.50;100139.00;;;;9877147;29;20235;-79
2023/01/12 14:21:28;;;;;;;5.87;3.27;;;;;10.50;100117.00;;;;9894669;29;20192;-79
2023/01/12 14:26:33;;;;;;;1.60;1.03;;;;;10.50;100119.00;;;;9878078;29;20200;-79
2023/01/12 14:31:46;;;;;;;4.47;0.87;;;;;10.50;100119.00;;;;9891445;29;20207;-79
2023/01/12 14:36:49;;;;;;;2.37;1.27;;;;;10.60;100114.00;;;;9884688;29;20192;-78
2023/01/12 14:47:33;;;;;;;0.70;0.57;;;;;10.70;100118.00;;;;9869533;29;20572;-78
2023/01/12 14:52:36;;;;;;;2.10;0.83;;;;;10.70;100112.00;;;;9873033;29;20239;-79
2023/01/12 14:57:38;;;;;;;3.83;0.80;;;;;10.70;100099.00;;;;9884255;29;20240;-78
2023/01/12 15:02:40;;;;;;;6.23;1.17;;;;;10.70;100100.00;;;;9907208;29;20195;-78
2023/01/12 15:08:08;;;;;;;1.70;0.80;;;;;10.70;100110.00;;;;9852855;29;20204;-78
2023/01/12 15:13:21;;;;;;;1.67;0.70;;;;;10.70;100081.00;;;;9916516;29;20225;-78
2023/01/12 15:29:07;;;;;;;4.23;0.93;;;;;10.60;100097.00;;;;9894779;29;20210;-79
2023/01/12 15:34:10;;;;;;;2.83;0.63;;;;;10.60;100081.00;;;;9884033;29;20329;-78
2023/01/12 15:39:13;;;;;;;2.80;0.70;;;;;10.60;100098.00;;;;9861026;29;20559;-79
2023/01/12 15:44:17;;;;;;;1.70;0.47;;;;;10.50;100100.00;;;;9870368;29;20191;-78
2023/01/12 15:49:20;;;;;;;1.90;0.50;;;;;10.30;100079.00;;;;9891499;29;20259;-79
2023/01/12 15:54:22;;;;;;;3.90;0.90;;;;;10.30;100076.00;;;;9869216;29;20223;-78
2023/01/12 15:59:24;;;;;;;0.57;0.50;;;;;10.20;100069.00;;;;9869330;29;20234;-79
2023/01/12 16:04:26;;;;;;;2.20;0.70;;;;;10.20;100083.00;;;;9842900;29;20195;-78
2023/01/12 16:09:46;;;;;;;2.50;0.80;;;;;10.20;100073.00;;;;9890703;29;20729;-78
2023/01/12 16:14:48;;;;;;;4.13;0.93;;;;;10.20;100090.00;;;;9883997;29;20211;-78
2023/01/12 16:19:50;;;;;;;4.60;4.03;;;;;10.20;100075.00;;;;9863836;30;20192;-79
2023/01/12 16:24:54;;;;;;;3.10;0.80;;;;;10.20;100077.00;;;;9862549;29;20231;-79
2023/01/12 16:29:56;;;;;;;1.93;0.90;;;;;10.10;100081.00;;;;9874084;29;20622;-79
2023/01/12 16:34:58;;;;;;;3.70;1.00;;;;;10.10;100069.00;;;;9918903;29;20230;-79
2023/01/12 16:40:00;;;;;;;4.83;1.20;;;;;10.10;100087.00;;;;9885192;30;20205;-78
2023/01/12 16:45:02;;;;;;;4.90;0.90;;;;;10.10;100066.00;;;;9881400;30;20233;-78
2023/01/12 16:50:05;;;;;;;2.03;1.30;;;;;10.10;100074.00;;;;9872879;30;20199;-77
2023/01/12 16:55:07;;;;;;;3.00;0.83;;;;;10.10;100062.00;;;;9879313;30;20222;-78
2023/01/12 17:00:09;;;;;;;5.13;1.10;;;;;10.10;100064.00;;;;9838864;30;20235;-78
2023/01/12 17:05:11;;;;;;;1.30;0.80;;;;;10.10;100057.00;;;;9885460;30;20724;-79
2023/01/12 17:10:15;;;;;;;1.97;1.03;;;;;10.20;100056.00;;;;9876534;29;20242;-78
2023/01/12 17:15:17;;;;;;;0.60;0.50;;;;;10.20;100055.00;;;;9870788;30;20215;-78
2023/01/12 17:20:21;;;;;;;2.30;1.67;;;;;10.20;100063.00;;;;9875665;30;20684;-79
2023/01/12 17:25:23;;;;;;;3.10;1.10;;;;;10.20;100054.00;;;;9890273;29;20610;-78
2023/01/12 17:30:25;;;;;;;0.70;0.70;;;;;10.20;100056.00;;;;9874364;29;20949;-79
2023/01/12 17:35:28;;;;;;;3.57;1.20;;;;;10.20;100059.00;;;;9906645;29;20211;-79
2023/01/12 17:40:30;;;;;;;3.17;0.93;;;;;10.20;100048.00;;;;9882045;29;20199;-79
2023/01/12 17:45:32;;;;;;;2.83;0.80;;;;;10.10;100065.00;;;;9861956;29;20283;-78
2023/01/12 17:50:37;;;;;;;1.13;0.80;;;;;10.10;100061.00;;;;9865911;29;20200;-79
2023/01/12 17:55:39;;;;;;;3.10;1.27;;;;;10.10;100051.00;;;;9870536;29;20235;-78
2023/01/12 18:00:50;;;;;;;1.77;1.00;;;;;10.10;100060.00;;;;9860020;29;20207;-77
2023/01/12 18:05:52;;;;;;;2.60;1.10;;;;;10.10;100065.00;;;;9860907;29;20263;-78
2023/01/12 18:11:07;;;;;;;4.80;1.67;;;;;10.10;100055.00;;;;9873778;29;20218;-78
2023/01/12 18:16:11;;;;;;;2.23;0.97;;;;;10.10;100061.00;;;;9858993;29;20696;-78
2023/01/12 18:21:17;;;;;;;2.73;1.40;;;;;10.10;100066.00;;;;9857155;29;20202;-78
2023/01/12 18:26:25;;;;;;;4.10;1.30;;;;;10.10;100066.00;;;;9860542;29;20204;-78
2023/01/12 18:31:32;;;;;;;2.70;1.20;;;;;10.10;100070.00;;;;9861544;29;20694;-78
2023/01/12 18:36:36;;;;;;;2.53;1.00;;;;;10.10;100058.00;;;;9883308;29;20241;-78
2023/01/12 18:57:42;;;;;;;2.43;0.93;;;;;10.00;100082.00;;;;9892190;29;20634;-77
2023/01/12 19:02:44;;;;;;;2.67;1.00;;;;;10.00;100068.00;;;;9859799;29;20766;-78
2023/01/12 19:18:21;;;;;;;2.93;1.07;;;;;10.00;100061.00;;;;9870081;30;20239;-77
2023/01/12 19:28:43;;;;;;;7.10;1.60;;;;;10.00;100075.00;;;;9858852;29;20202;-78
2023/01/12 19:33:45;;;;;;;5.07;1.67;;;;;10.00;100069.00;;;;9866147;29;20239;-78
2023/01/12 19:38:51;;;;;;;3.13;1.20;;;;;10.00;100060.00;;;;9868597;29;20231;-78
2023/01/12 19:43:53;;;;;;;5.17;1.13;;;;;10.00;100066.00;;;;9875867;30;20291;-78
2023/01/12 19:48:56;;;;;;;4.07;1.87;;;;;10.00;100067.00;;;;9853924;30;20618;-79
2023/01/12 19:53:58;;;;;;;5.07;2.10;;;;;10.00;100045.00;;;;9869577;30;20261;-78
2023/01/12 19:59:00;;;;;;;7.10;1.70;;;;;10.00;100046.00;;;;9862409;30;20239;-79
2023/01/12 20:04:03;;;;;;;4.13;1.40;;;;;10.00;100035.00;;;;9895632;29;20588;-78
2023/01/12 20:09:04;;;;;;;3.03;1.27;;;;;10.00;100027.00;;;;9856849;30;20206;-78
2023/01/12 20:14:06;;;;;;;2.63;1.47;;;;;10.00;100015.00;;;;9852674;30;20687;-79
2023/01/12 20:19:08;;;;;;;2.37;1.70;;;;;10.00;100021.00;;;;9858010;30;20257;-78
2023/01/12 20:24:11;;;;;;;2.13;1.03;;;;;10.00;100015.00;;;;9874500;30;20200;-78
2023/01/12 20:29:12;;;;;;;3.17;1.00;;;;;10.00;100018.00;;;;9855662;30;20663;-78
2023/01/12 20:34:14;;;;;;;5.93;2.40;;;;;10.10;100020.00;;;;9886767;29;20284;-79
2023/01/12 20:39:16;;;;;;;2.47;1.17;;;;;10.20;100016.00;;;;9878617;30;20322;-78
2023/01/12 20:44:19;;;;;;;1.50;1.07;;;;;10.20;100011.00;;;;9885255;29;20204;-78
2023/01/12 20:49:21;;;;;;;3.10;1.33;;;;;10.30;100015.00;;;;9867783;30;20265;-78
2023/01/12 20:54:23;;;;;;;3.03;1.10;;;;;10.30;100005.00;;;;9852103;30;20231;-78
2023/01/12 20:59:25;;;;;;;1.83;0.90;;;;;10.20;100004.00;;;;9885973;30;20200;-80
2023/01/12 21:04:29;;;;;;;3.77;1.53;;;;;10.30;100004.00;;;;9846293;29;20256;-78
2023/01/12 21:09:31;;;;;;;2.17;0.97;;;;;10.30;100004.00;;;;9881208;29;20216;-79
2023/01/12 21:14:33;;;;;;;1.77;1.00;;;;;10.30;99998.00;;;;9876993;29;20221;-78
2023/01/12 21:19:35;;;;;;;1.20;1.10;;;;;10.30;99997.00;;;;9862785;29;20811;-78
2023/01/12 21:24:38;;;;;;;3.20;1.33;;;;;10.30;99991.00;;;;9862699;30;20196;-78
2023/01/12 21:29:39;;;;;;;2.40;1.30;;;;;10.30;99998.00;;;;9891331;29;20208;-78
2023/01/12 21:34:41;;;;;;;1.10;0.83;;;;;10.30;99999.00;;;;9863652;30;20318;-78
2023/01/12 21:39:43;;;;;;;1.27;1.00;;;;;10.30;100013.00;;;;9861661;30;20603;-78
2023/01/12 21:44:45;;;;;;;2.43;0.80;;;;;10.20;100022.00;;;;9881323;30;20196;-79
2023/01/12 21:49:47;;;;;;;2.83;0.77;;;;;10.10;100030.00;;;;9865246;29;20268;-79
2023/01/12 21:54:49;;;;;;;2.93;1.07;;;;;10.00;100037.00;;;;9892216;29;20265;-79
2023/01/12 21:59:51;;;;;;;0.67;0.67;;;;;9.90;100027.00;;;;9877986;29;20199;-79
2023/01/12 22:04:53;;;;;;;1.20;0.50;;;;;9.80;100033.00;;;;9871733;29;20200;-79
2023/01/12 22:10:17;;;;;;;1.57;0.77;;;;;9.70;100041.00;;;;9874995;29;20227;-78
2023/01/12 22:15:17;;;;;;;4.10;0.80;;;;;9.70;100032.00;;;;9876521;29;20658;-78
2023/01/12 22:20:21;;;;;;;2.43;1.00;;;;;9.70;100053.00;;;;9875483;30;20208;-78
2023/01/12 22:25:23;;;;;;;2.10;0.70;;;;;9.50;100062.00;;;;9858904;29;20253;-78
2023/01/12 22:30:26;;;;;;;2.50;1.23;;;;;9.50;100059.00;;;;9865381;30;20215;-78
2023/01/12 22:35:28;;;;;;;9.63;4.17;;;;;9.40;100075.00;;;;9872928;30;20247;-78
2023/01/12 22:40:30;;;;;;;26.00;14.17;;;;;9.40;100077.00;;;;9860329;30;20198;-78
2023/01/12 22:45:33;;;;;;;5.23;2.97;;;;;9.40;100076.00;;;;9871075;30;20219;-78
2023/01/12 22:50:35;;;;;;;5.97;1.53;;;;;9.40;100087.00;;;;9849858;30;20239;-78
2023/01/12 22:55:40;;;;;;;5.03;1.80;;;;;9.40;100093.00;;;;9854491;30;20778;-78
2023/01/12 23:00:42;;;;;;;10.03;2.20;;;;;9.30;100094.00;;;;9865542;29;20319;-79
2023/01/12 23:05:52;;;;;;;6.63;1.40;;;;;9.20;100085.00;;;;9863191;30;20210;-78
2023/01/12 23:11:10;;;;;;;11.33;1.53;;;;;9.10;100079.00;;;;9871002;29;20231;-78
2023/01/12 23:16:15;;;;;;;5.57;1.60;;;;;8.90;100073.00;;;;9870365;30;20222;-78
2023/01/12 23:21:23;;;;;;;5.70;1.53;;;;;8.90;100069.00;;;;9872332;30;20231;-78
2023/01/12 23:26:29;;;;;;;2.83;0.90;;;;;8.90;100089.00;;;;9880902;29;20624;-78
2023/01/12 23:31:32;;;;;;;7.07;2.07;;;;;8.90;100068.00;;;;9870433;30;20204;-78
2023/01/12 23:36:34;;;;;;;6.83;1.23;;;;;8.90;100059.00;;;;9880071;30;20302;-78
2023/01/12 23:41:37;;;;;;;5.87;1.40;;;;;8.80;100063.00;;;;9900254;30;20692;-78
2023/01/12 23:46:41;;;;;;;4.73;1.07;;;;;8.80;100056.00;;;;9864168;30;20283;-78
2023/01/12 23:51:43;;;;;;;9.03;1.50;;;;;8.80;100041.00;;;;9873006;30;20198;-78
2023/01/12 23:56:51;;;;;;;7.60;1.87;;;;;8.80;100043.00;;;;9857150;30;20248;-78
